Terminal Aerodrome Forecast
Issued by NWS

Current Version | Previous Version | Text Only | Print | Product List | Glossary On
Versions: 1 2 3 4 5 6 7 8 9 10 11 12 13 14 15 16 17 18 19 20 21 22 23 24 25 26 27 28 29 30 31 32 33 34 35 36 37 38
000
FTUS45 KGJT 292057 AAA
TAFVEL
TAF AMD
KVEL 292057Z 2921/3018 19003KT P6SM FEW100
      TEMPO 2921/2923 -RA BKN050
     FM300200 27004KT P6SM SCT200
     FM300600 29005KT P6SM FEW090 BKN200
     FM301600 11004KT P6SM SCT080 BKN200=

USA.gov is the U.S. government's official web portal to all federal, state and local government web resources and services.